Time;durP1;ratioP1;P1;durP2;ratioP2;P2;SDS_P1;SDS_P2;PMS_P1;PMS_P2;Temp;Humidity;BMP_temperature;BMP_pressure;BME280_temperature;BME280_humidity;BME280_pressure;Samples;Min_cycle;Max_cycle;Signal;HPM_P1;HPM_P2
2022/09/14 00:01:00;;;;;;;7.75;2.42;;;;;;;;;;4999576;28;20465;-71
2022/09/14 00:03:26;;;;;;;4.40;2.90;;;;;;;;;;5001051;28;20054;-69
2022/09/14 00:05:51;;;;;;;5.22;2.58;;;;;;;;;;5001260;28;20076;-67
2022/09/14 00:08:17;;;;;;;4.15;2.30;;;;;;;;;;5002336;28;20525;-69
2022/09/14 00:10:45;;;;;;;4.78;2.25;;;;;;;;;;4997810;28;20564;-67
2022/09/14 00:13:12;;;;;;;5.22;2.25;;;;;;;;;;4999251;28;20025;-71
2022/09/14 00:15:39;;;;;;;6.40;2.55;;;;;;;;;;4999522;28;20104;-70
2022/09/14 00:18:06;;;;;;;2.53;2.30;;;;;;;;;;4997048;28;20030;-71
2022/09/14 00:20:33;;;;;;;5.68;2.38;;;;;;;;;;4994312;28;20050;-69
2022/09/14 00:22:59;;;;;;;8.00;2.10;;;;;;;;;;4999113;28;20029;-67
2022/09/14 00:25:25;;;;;;;5.07;2.33;;;;;;;;;;5002155;28;20394;-68
2022/09/14 00:27:54;;;;;;;4.05;1.85;;;;;;;;;;5001119;28;20061;-70
2022/09/14 00:30:20;;;;;;;2.95;2.10;;;;;;;;;;5004134;28;20405;-70
2022/09/14 00:32:46;;;;;;;4.53;2.08;;;;;;;;;;5001382;28;20037;-70
2022/09/14 00:35:11;;;;;;;6.18;2.50;;;;;;;;;;5001996;28;20034;-68
2022/09/14 00:37:38;;;;;;;6.07;2.40;;;;;;;;;;5005246;28;20034;-70
2022/09/14 00:40:04;;;;;;;7.68;2.35;;;;;;;;;;5011282;28;20500;-68
2022/09/14 00:42:30;;;;;;;6.38;2.25;;;;;;;;;;5003937;28;20026;-65
2022/09/14 00:45:17;;;;;;;9.13;2.92;;;;;;;;;;5008555;28;20502;-68
2022/09/14 00:47:43;;;;;;;7.85;2.67;;;;;;;;;;5004199;28;20057;-70
2022/09/14 00:50:10;;;;;;;8.57;2.53;;;;;;;;;;5000079;28;20533;-71
2022/09/14 00:52:39;;;;;;;4.10;2.30;;;;;;;;;;5004697;28;20512;-65
2022/09/14 00:55:11;;;;;;;3.70;2.20;;;;;;;;;;5009017;28;20086;-70
2022/09/14 00:57:49;;;;;;;6.35;2.50;;;;;;;;;;5001917;28;20437;-71
2022/09/14 01:00:19;;;;;;;4.63;2.70;;;;;;;;;;5006985;28;20038;-65
2022/09/14 01:02:44;;;;;;;5.65;2.70;;;;;;;;;;5001366;28;20363;-71
2022/09/14 01:05:11;;;;;;;7.55;2.53;;;;;;;;;;5002967;28;20034;-68
2022/09/14 01:07:40;;;;;;;7.68;2.45;;;;;;;;;;5005778;28;20121;-64
2022/09/14 01:10:18;;;;;;;6.88;2.58;;;;;;;;;;5005838;28;20028;-70
2022/09/14 01:13:05;;;;;;;5.30;2.50;;;;;;;;;;5005655;28;20024;-64
2022/09/14 01:15:47;;;;;;;6.00;2.72;;;;;;;;;;5003147;28;20044;-61
2022/09/14 01:18:37;;;;;;;6.63;2.83;;;;;;;;;;5001195;28;20464;-63
2022/09/14 01:21:10;;;;;;;11.18;3.58;;;;;;;;;;4994297;28;20030;-69
2022/09/14 01:23:35;;;;;;;6.13;3.70;;;;;;;;;;5003408;28;20054;-69
2022/09/14 01:26:25;;;;;;;5.75;3.88;;;;;;;;;;4999868;28;20569;-71
2022/09/14 01:29:26;;;;;;;9.38;3.60;;;;;;;;;;5008716;28;20053;-71
2022/09/14 01:32:08;;;;;;;6.22;3.50;;;;;;;;;;5002953;28;20402;-68
2022/09/14 01:35:17;;;;;;;5.30;3.25;;;;;;;;;;4998800;28;20651;-66
2022/09/14 01:37:50;;;;;;;7.18;3.08;;;;;;;;;;4999822;28;20457;-69
2022/09/14 01:40:20;;;;;;;5.63;2.92;;;;;;;;;;5001683;28;20021;-69
2022/09/14 01:42:51;;;;;;;10.40;3.58;;;;;;;;;;5001787;28;20098;-66
2022/09/14 01:45:20;;;;;;;5.53;3.35;;;;;;;;;;5004227;28;20164;-64
2022/09/14 01:47:51;;;;;;;4.82;3.20;;;;;;;;;;5004785;28;20600;-69
2022/09/14 01:50:26;;;;;;;7.90;3.40;;;;;;;;;;5007558;28;20034;-70
2022/09/14 01:52:58;;;;;;;5.72;3.13;;;;;;;;;;4998817;28;22015;-69
2022/09/14 01:55:30;;;;;;;8.75;3.60;;;;;;;;;;5001855;28;20029;-70
2022/09/14 01:58:25;;;;;;;7.25;3.80;;;;;;;;;;5002690;28;20095;-63
2022/09/14 02:00:52;;;;;;;5.65;3.30;;;;;;;;;;4988345;28;20080;-69
2022/09/14 02:03:24;;;;;;;5.78;3.80;;;;;;;;;;4999271;28;20524;-70
2022/09/14 02:06:04;;;;;;;6.28;3.38;;;;;;;;;;5001686;28;20116;-67
2022/09/14 02:08:30;;;;;;;9.18;3.30;;;;;;;;;;4995716;28;20619;-67
2022/09/14 02:10:56;;;;;;;6.20;3.10;;;;;;;;;;5001503;28;20045;-69
2022/09/14 02:13:22;;;;;;;4.30;3.25;;;;;;;;;;5003954;28;20416;-69
2022/09/14 02:15:48;;;;;;;6.43;3.38;;;;;;;;;;5002916;28;20663;-69
2022/09/14 02:18:14;;;;;;;7.55;3.67;;;;;;;;;;5001867;28;20061;-68
2022/09/14 02:20:55;;;;;;;7.88;3.60;;;;;;;;;;4992799;28;20050;-68
2022/09/14 02:23:21;;;;;;;6.10;3.80;;;;;;;;;;4996666;28;20066;-69
2022/09/14 02:25:46;;;;;;;8.70;3.28;;;;;;;;;;5004930;28;20065;-68
2022/09/14 02:28:12;;;;;;;5.13;3.08;;;;;;;;;;5001920;28;20026;-68
2022/09/14 02:31:03;;;;;;;6.80;3.25;;;;;;;;;;5003879;28;20049;-69
2022/09/14 02:33:37;;;;;;;9.57;3.28;;;;;;;;;;5004221;28;20088;-66
2022/09/14 02:36:50;;;;;;;5.20;3.08;;;;;;;;;;5001561;28;20157;-69
2022/09/14 02:39:43;;;;;;;5.65;3.15;;;;;;;;;;5001966;28;20449;-68
2022/09/14 02:42:14;;;;;;;;;;;;;;;;;;5001500;28;20493;-68
2022/09/14 02:45:20;;;;;;;5.43;3.05;;;;;;;;;;5003054;28;19929;-68
2022/09/14 02:48:08;;;;;;;9.52;3.05;;;;;;;;;;5004823;28;20037;-68
2022/09/14 02:50:59;;;;;;;7.00;3.10;;;;;;;;;;5003429;28;20851;-67
2022/09/14 02:53:43;;;;;;;7.70;3.65;;;;;;;;;;4996655;28;20029;-73
2022/09/14 02:56:10;;;;;;;10.90;3.70;;;;;;;;;;5000668;28;20080;-70
2022/09/14 02:58:41;;;;;;;7.13;3.60;;;;;;;;;;4993825;28;20038;-70
2022/09/14 03:01:09;;;;;;;7.07;3.55;;;;;;;;;;5003262;28;20033;-67
2022/09/14 03:03:35;;;;;;;5.57;3.60;;;;;;;;;;5001926;28;20145;-67
2022/09/14 03:06:01;;;;;;;6.65;3.85;;;;;;;;;;5001938;28;20132;-69
2022/09/14 03:08:27;;;;;;;8.63;3.78;;;;;;;;;;4995723;28;20034;-66
2022/09/14 03:10:53;;;;;;;8.05;3.72;;;;;;;;;;5001560;28;20034;-68
2022/09/14 03:13:18;;;;;;;10.80;3.95;;;;;;;;;;5002789;28;20045;-68
2022/09/14 03:15:44;;;;;;;5.38;3.60;;;;;;;;;;5003138;28;20044;-68
2022/09/14 03:18:09;;;;;;;7.70;3.97;;;;;;;;;;4999181;28;20117;-67
2022/09/14 03:20:35;;;;;;;10.55;4.13;;;;;;;;;;5002268;28;20104;-69
2022/09/14 03:23:02;;;;;;;4.32;3.80;;;;;;;;;;5001411;28;20563;-68
2022/09/14 03:25:28;;;;;;;7.13;3.75;;;;;;;;;;4997932;28;20033;-65
2022/09/14 03:27:56;;;;;;;10.02;4.05;;;;;;;;;;5003256;28;20468;-69
2022/09/14 03:30:22;;;;;;;5.82;3.83;;;;;;;;;;5002419;28;20394;-70
2022/09/14 03:32:48;;;;;;;5.82;3.88;;;;;;;;;;5001776;28;20025;-67
2022/09/14 03:35:14;;;;;;;6.47;4.03;;;;;;;;;;4999208;28;20598;-69
2022/09/14 03:37:41;;;;;;;6.13;3.90;;;;;;;;;;4998869;28;20039;-70
2022/09/14 03:40:08;;;;;;;9.07;4.57;;;;;;;;;;4995967;28;20023;-69
2022/09/14 03:42:34;;;;;;;12.30;5.68;;;;;;;;;;5003823;28;20072;-69
2022/09/14 03:44:59;;;;;;;9.63;4.93;;;;;;;;;;4998566;28;20125;-69
2022/09/14 03:47:25;;;;;;;9.43;4.13;;;;;;;;;;4999941;28;20046;-68
2022/09/14 03:49:51;;;;;;;7.57;4.65;;;;;;;;;;5002672;28;20371;-70
2022/09/14 03:52:17;;;;;;;9.50;5.00;;;;;;;;;;5002390;28;20595;-69
2022/09/14 03:54:42;;;;;;;5.40;4.28;;;;;;;;;;5003371;28;20165;-69
2022/09/14 03:57:08;;;;;;;4.90;3.75;;;;;;;;;;4994132;28;20033;-69
2022/09/14 03:59:33;;;;;;;7.75;4.22;;;;;;;;;;5005195;28;20073;-68
2022/09/14 04:01:59;;;;;;;6.50;4.30;;;;;;;;;;5005201;28;20061;-69
2022/09/14 04:04:25;;;;;;;10.85;3.97;;;;;;;;;;5004933;28;20068;-70
2022/09/14 04:06:51;;;;;;;7.35;3.63;;;;;;;;;;5005267;28;20014;-69
2022/09/14 04:09:18;;;;;;;5.75;4.03;;;;;;;;;;5005574;28;20160;-67
2022/09/14 04:11:45;;;;;;;6.07;4.20;;;;;;;;;;5005898;28;20038;-68
2022/09/14 04:14:11;;;;;;;8.20;4.43;;;;;;;;;;5008145;28;20045;-70
2022/09/14 04:16:37;;;;;;;7.97;4.43;;;;;;;;;;5005204;28;20430;-70
2022/09/14 04:19:03;;;;;;;6.70;4.15;;;;;;;;;;4999934;28;20080;-72
2022/09/14 04:21:28;;;;;;;8.70;4.40;;;;;;;;;;5002249;28;20034;-68
2022/09/14 04:23:55;;;;;;;10.25;4.53;;;;;;;;;;5005923;28;20347;-70
2022/09/14 04:26:24;;;;;;;7.53;3.95;;;;;;;;;;5003426;28;20073;-68
2022/09/14 04:28:50;;;;;;;7.07;4.25;;;;;;;;;;5005812;28;20080;-68
2022/09/14 04:31:15;;;;;;;6.93;4.40;;;;;;;;;;5000961;28;20454;-68
2022/09/14 04:33:42;;;;;;;7.72;4.15;;;;;;;;;;5002746;28;20028;-68
2022/09/14 04:36:13;;;;;;;6.32;4.10;;;;;;;;;;5005065;28;20072;-69
2022/09/14 04:38:40;;;;;;;11.70;4.68;;;;;;;;;;5004195;28;20038;-69
2022/09/14 04:41:12;;;;;;;7.13;4.45;;;;;;;;;;5000607;28;20038;-69
2022/09/14 04:43:38;;;;;;;6.82;4.28;;;;;;;;;;5002363;28;20045;-69
2022/09/14 04:46:06;;;;;;;10.55;4.43;;;;;;;;;;5005846;28;20014;-66
2022/09/14 04:48:33;;;;;;;8.25;4.30;;;;;;;;;;5006730;28;20038;-71
2022/09/14 04:51:04;;;;;;;8.10;5.03;;;;;;;;;;4999554;28;20041;-68
2022/09/14 04:53:29;;;;;;;8.50;4.47;;;;;;;;;;5005688;28;20549;-69
2022/09/14 04:56:03;;;;;;;8.07;4.28;;;;;;;;;;5002260;28;20046;-65
2022/09/14 04:58:28;;;;;;;6.82;4.05;;;;;;;;;;5000552;28;20714;-68
2022/09/14 05:01:15;;;;;;;7.88;4.22;;;;;;;;;;5001430;28;20026;-67
2022/09/14 05:03:41;;;;;;;9.15;3.97;;;;;;;;;;4998608;28;20076;-70
2022/09/14 05:06:10;;;;;;;11.57;4.20;;;;;;;;;;5003153;28;20057;-65
2022/09/14 05:08:37;;;;;;;9.18;4.82;;;;;;;;;;5001571;28;20042;-68
2022/09/14 05:11:05;;;;;;;8.15;4.80;;;;;;;;;;5001357;28;20121;-67
2022/09/14 05:13:32;;;;;;;7.45;4.35;;;;;;;;;;5004127;28;20092;-68
2022/09/14 05:16:09;;;;;;;7.00;4.28;;;;;;;;;;5008949;28;20029;-67
2022/09/14 05:18:35;;;;;;;7.97;4.30;;;;;;;;;;5008059;28;20025;-68
2022/09/14 05:21:06;;;;;;;9.02;5.70;;;;;;;;;;5005049;28;20372;-70
2022/09/14 05:23:31;;;;;;;10.20;4.88;;;;;;;;;;5001098;28;20052;-68
2022/09/14 05:25:57;;;;;;;6.68;4.40;;;;;;;;;;5003380;28;20041;-68
2022/09/14 05:28:24;;;;;;;7.22;4.65;;;;;;;;;;5004400;28;20421;-68
2022/09/14 05:30:49;;;;;;;5.90;4.85;;;;;;;;;;5004389;28;20404;-69
2022/09/14 05:33:14;;;;;;;9.65;5.75;;;;;;;;;;5003425;28;20121;-69
2022/09/14 05:35:40;;;;;;;10.32;5.53;;;;;;;;;;5005286;28;20037;-68
2022/09/14 05:38:05;;;;;;;11.73;5.78;;;;;;;;;;5003073;28;20497;-69
2022/09/14 05:40:31;;;;;;;10.65;6.30;;;;;;;;;;5002136;28;20042;-68
2022/09/14 05:42:56;;;;;;;9.73;6.75;;;;;;;;;;5004005;28;20480;-65
2022/09/14 05:45:22;;;;;;;9.45;6.72;;;;;;;;;;4992481;28;21974;-67
2022/09/14 05:47:47;;;;;;;14.57;7.53;;;;;;;;;;5001607;28;20026;-64
2022/09/14 05:50:13;;;;;;;11.27;6.70;;;;;;;;;;5007912;28;20026;-68
2022/09/14 05:52:39;;;;;;;9.27;6.10;;;;;;;;;;5003556;28;21626;-69
2022/09/14 05:55:05;;;;;;;10.82;7.32;;;;;;;;;;4999853;28;20426;-68
2022/09/14 05:57:31;;;;;;;11.02;7.40;;;;;;;;;;5004357;28;20057;-68
2022/09/14 05:59:57;;;;;;;10.63;7.78;;;;;;;;;;4999939;28;20065;-67
2022/09/14 06:02:22;;;;;;;14.38;7.80;;;;;;;;;;4999613;28;20030;-67
2022/09/14 06:04:48;;;;;;;12.85;7.63;;;;;;;;;;5002267;28;20041;-68
2022/09/14 06:07:14;;;;;;;14.07;9.13;;;;;;;;;;5001782;28;20029;-69
2022/09/14 06:09:41;;;;;;;13.57;8.73;;;;;;;;;;5004398;28;20486;-69
2022/09/14 06:12:07;;;;;;;14.98;9.85;;;;;;;;;;5006991;28;20450;-68
2022/09/14 06:14:33;;;;;;;16.00;10.00;;;;;;;;;;4997706;28;20058;-68
2022/09/14 06:16:59;;;;;;;15.13;9.90;;;;;;;;;;4999415;28;20107;-68
2022/09/14 06:19:25;;;;;;;15.02;9.70;;;;;;;;;;5001456;28;20097;-68
2022/09/14 06:21:50;;;;;;;15.40;9.48;;;;;;;;;;5001656;28;20032;-68
2022/09/14 06:24:15;;;;;;;15.50;9.63;;;;;;;;;;4998073;28;20038;-68
2022/09/14 06:26:41;;;;;;;16.15;8.68;;;;;;;;;;5004108;28;20040;-68
2022/09/14 06:29:07;;;;;;;12.95;9.45;;;;;;;;;;5003115;28;20048;-68
2022/09/14 06:31:32;;;;;;;12.45;9.20;;;;;;;;;;5001406;28;20042;-67
2022/09/14 06:33:57;;;;;;;17.55;10.05;;;;;;;;;;4996836;28;20021;-65
2022/09/14 06:36:25;;;;;;;14.85;9.43;;;;;;;;;;5003509;28;20355;-69
2022/09/14 06:38:51;;;;;;;14.20;10.23;;;;;;;;;;5004244;28;20064;-68
2022/09/14 06:41:20;;;;;;;14.02;10.38;;;;;;;;;;5002732;28;20057;-69
2022/09/14 06:43:48;;;;;;;16.23;9.88;;;;;;;;;;4999976;28;20584;-69
2022/09/14 06:46:19;;;;;;;18.42;10.32;;;;;;;;;;4998497;28;20085;-70
2022/09/14 06:48:58;;;;;;;15.88;10.32;;;;;;;;;;5002797;28;20421;-71
2022/09/14 06:51:30;;;;;;;12.93;9.40;;;;;;;;;;5001426;28;20046;-68
2022/09/14 06:54:00;;;;;;;;;;;;;;;;;;5002810;28;20034;-70
2022/09/14 06:56:27;;;;;;;18.33;9.93;;;;;;;;;;5000619;28;20298;-70
2022/09/14 06:58:53;;;;;;;14.30;9.00;;;;;;;;;;5001489;28;20494;-69
2022/09/14 07:01:19;;;;;;;15.50;10.50;;;;;;;;;;4998708;28;20038;-66
2022/09/14 07:03:47;;;;;;;17.98;10.23;;;;;;;;;;5001976;28;20095;-69
2022/09/14 07:06:15;;;;;;;19.48;10.60;;;;;;;;;;5005341;28;20035;-66
2022/09/14 07:08:41;;;;;;;17.33;11.05;;;;;;;;;;5002711;28;20860;-71
2022/09/14 07:11:09;;;;;;;17.02;9.68;;;;;;;;;;4999124;28;20042;-69
2022/09/14 07:13:35;;;;;;;15.48;10.23;;;;;;;;;;5000084;28;20038;-68
2022/09/14 07:16:02;;;;;;;15.35;10.02;;;;;;;;;;4997499;28;20022;-67
2022/09/14 07:18:29;;;;;;;18.15;9.10;;;;;;;;;;4998861;28;20030;-67
2022/09/14 07:20:54;;;;;;;12.93;9.15;;;;;;;;;;4996611;28;20056;-69
2022/09/14 07:23:20;;;;;;;14.90;8.63;;;;;;;;;;4999075;28;20516;-69
2022/09/14 07:25:46;;;;;;;12.60;8.50;;;;;;;;;;4999339;28;20042;-69
2022/09/14 07:28:11;;;;;;;18.25;9.27;;;;;;;;;;4999705;28;20455;-71
2022/09/14 07:30:37;;;;;;;15.73;8.90;;;;;;;;;;4999354;28;20026;-68
2022/09/14 07:33:06;;;;;;;14.10;9.20;;;;;;;;;;4997276;28;20033;-68
2022/09/14 07:35:32;;;;;;;12.50;8.63;;;;;;;;;;5002332;28;20033;-70
2022/09/14 07:37:58;;;;;;;12.13;8.43;;;;;;;;;;5005974;28;20045;-69
2022/09/14 07:40:23;;;;;;;12.73;8.70;;;;;;;;;;5006630;28;20037;-70
2022/09/14 07:42:50;;;;;;;10.45;7.85;;;;;;;;;;5007116;28;20876;-68
2022/09/14 07:45:16;;;;;;;10.90;8.10;;;;;;;;;;5004506;28;20517;-70
2022/09/14 07:47:43;;;;;;;9.90;7.47;;;;;;;;;;5007467;28;20034;-69
2022/09/14 07:50:09;;;;;;;10.57;7.53;;;;;;;;;;5006181;28;20057;-68
2022/09/14 07:52:34;;;;;;;8.90;6.43;;;;;;;;;;5006545;28;20037;-68
2022/09/14 07:54:59;;;;;;;10.32;6.68;;;;;;;;;;5006074;28;20018;-68
2022/09/14 07:57:25;;;;;;;10.07;6.03;;;;;;;;;;5005786;28;20034;-69
2022/09/14 07:59:52;;;;;;;10.45;5.82;;;;;;;;;;5007227;28;20090;-70
2022/09/14 08:02:18;;;;;;;9.50;5.68;;;;;;;;;;5007726;28;20045;-69
2022/09/14 08:04:44;;;;;;;8.20;5.45;;;;;;;;;;4999781;28;20038;-69
2022/09/14 08:07:11;;;;;;;8.95;6.05;;;;;;;;;;5005019;28;20084;-70
2022/09/14 08:09:37;;;;;;;12.10;6.55;;;;;;;;;;5008050;28;20398;-69
2022/09/14 08:12:04;;;;;;;8.60;6.40;;;;;;;;;;5005347;28;20029;-69
2022/09/14 08:14:30;;;;;;;11.93;7.47;;;;;;;;;;5007896;28;20033;-70
2022/09/14 08:16:56;;;;;;;11.50;7.35;;;;;;;;;;5003196;28;20076;-68
2022/09/14 08:19:21;;;;;;;12.32;7.18;;;;;;;;;;5002900;28;20038;-70
2022/09/14 08:21:47;;;;;;;9.25;6.68;;;;;;;;;;5002636;28;20093;-68
2022/09/14 08:24:18;;;;;;;10.25;7.45;;;;;;;;;;4991916;28;20038;-69
2022/09/14 08:26:44;;;;;;;10.30;6.53;;;;;;;;;;4991932;28;20549;-68
2022/09/14 08:29:11;;;;;;;10.30;6.70;;;;;;;;;;4990016;28;20034;-69
2022/09/14 08:31:38;;;;;;;8.52;6.18;;;;;;;;;;4992503;28;20562;-68
2022/09/14 08:34:04;;;;;;;9.05;6.05;;;;;;;;;;4988313;28;20034;-68
2022/09/14 08:36:37;;;;;;;6.90;5.22;;;;;;;;;;4994183;28;20470;-70
2022/09/14 08:39:07;;;;;;;8.23;5.70;;;;;;;;;;5003027;28;20116;-67
2022/09/14 08:41:42;;;;;;;9.75;5.25;;;;;;;;;;5006260;28;20044;-69
2022/09/14 08:44:10;;;;;;;5.45;4.53;;;;;;;;;;5004361;28;20030;-68
2022/09/14 08:46:58;;;;;;;5.72;4.60;;;;;;;;;;5006524;28;20046;-69
2022/09/14 08:49:42;;;;;;;6.10;4.82;;;;;;;;;;5007656;28;21004;-69
2022/09/14 08:52:33;;;;;;;6.88;4.10;;;;;;;;;;5007808;28;20105;-69
2022/09/14 08:55:00;;;;;;;6.80;4.30;;;;;;;;;;5003357;28;20030;-69
2022/09/14 08:57:39;;;;;;;7.38;4.60;;;;;;;;;;5006636;28;22326;-68
2022/09/14 09:00:09;;;;;;;6.55;4.45;;;;;;;;;;5005589;28;20025;-67
2022/09/14 09:02:47;;;;;;;7.38;4.25;;;;;;;;;;5005608;28;20505;-69
2022/09/14 09:05:30;;;;;;;6.47;4.05;;;;;;;;;;5004946;28;20415;-67
2022/09/14 09:08:02;;;;;;;;;;;;;;;;;;5024109;28;20046;-69
2022/09/14 09:10:29;;;;;;;4.50;3.60;;;;;;;;;;4998816;28;20349;-69
2022/09/14 09:12:58;;;;;;;4.75;3.80;;;;;;;;;;5003668;28;20103;-67
2022/09/14 09:15:31;;;;;;;5.72;3.95;;;;;;;;;;5005185;28;20387;-69
2022/09/14 09:18:11;;;;;;;6.40;4.05;;;;;;;;;;5005390;28;20021;-69
2022/09/14 09:20:45;;;;;;;6.03;3.75;;;;;;;;;;4980060;28;20159;-69
2022/09/14 09:23:19;;;;;;;4.53;3.67;;;;;;;;;;4980385;28;20042;-70
2022/09/14 09:26:01;;;;;;;4.40;3.50;;;;;;;;;;4994955;28;20065;-65
2022/09/14 09:28:28;;;;;;;4.15;3.47;;;;;;;;;;4994939;28;20034;-69
2022/09/14 09:30:57;;;;;;;4.97;3.72;;;;;;;;;;5001281;28;20026;-69
2022/09/14 09:33:24;;;;;;;4.13;3.28;;;;;;;;;;5003426;28;20487;-71
2022/09/14 09:35:52;;;;;;;4.10;3.55;;;;;;;;;;5002183;28;20053;-70
2022/09/14 09:38:23;;;;;;;3.85;3.40;;;;;;;;;;5001560;28;20044;-64
2022/09/14 09:41:06;;;;;;;8.25;4.25;;;;;;;;;;5004406;28;20498;-71
2022/09/14 09:43:32;;;;;;;4.55;3.45;;;;;;;;;;5001343;28;20509;-69
2022/09/14 09:46:03;;;;;;;7.68;3.58;;;;;;;;;;5000497;28;20037;-68
2022/09/14 09:48:37;;;;;;;7.05;4.13;;;;;;;;;;4998947;28;20514;-70
2022/09/14 09:51:14;;;;;;;6.15;4.22;;;;;;;;;;5008646;28;20020;-71
2022/09/14 09:54:07;;;;;;;5.68;4.10;;;;;;;;;;5003047;28;20025;-71
2022/09/14 09:56:39;;;;;;;6.75;4.82;;;;;;;;;;5001884;28;20053;-69
2022/09/14 09:59:41;;;;;;;7.00;3.70;;;;;;;;;;5001996;28;20125;-70
2022/09/14 10:02:24;;;;;;;5.03;4.15;;;;;;;;;;4890582;29;20103;-69
2022/09/14 10:05:16;;;;;;;3.50;3.13;;;;;;;;;;4991219;28;20038;-69
2022/09/14 10:08:00;;;;;;;5.28;3.38;;;;;;;;;;4997734;28;20125;-69
2022/09/14 10:10:43;;;;;;;5.03;3.22;;;;;;;;;;5002934;28;20050;-69
2022/09/14 10:13:33;;;;;;;5.28;3.40;;;;;;;;;;5005675;28;20034;-69
2022/09/14 10:16:14;;;;;;;3.75;3.30;;;;;;;;;;5001399;28;20041;-64
2022/09/14 10:18:48;;;;;;;5.10;3.60;;;;;;;;;;5000208;28;20038;-69
2022/09/14 10:21:16;;;;;;;3.60;3.08;;;;;;;;;;4999907;28;20034;-66
2022/09/14 10:23:43;;;;;;;3.45;3.15;;;;;;;;;;5003211;28;20502;-66
2022/09/14 10:26:11;;;;;;;3.25;2.95;;;;;;;;;;5002854;28;20521;-71
2022/09/14 10:28:38;;;;;;;4.82;3.17;;;;;;;;;;5002534;28;20042;-71
2022/09/14 10:31:17;;;;;;;5.53;3.38;;;;;;;;;;4998308;28;20117;-70
2022/09/14 10:33:52;;;;;;;3.17;2.92;;;;;;;;;;5004262;28;20037;-71
2022/09/14 10:36:20;;;;;;;2.83;2.63;;;;;;;;;;4999747;28;20502;-70
2022/09/14 10:38:51;;;;;;;4.22;2.90;;;;;;;;;;5004354;28;20029;-69
2022/09/14 10:41:20;;;;;;;3.20;2.70;;;;;;;;;;5000540;28;20030;-71
2022/09/14 10:43:55;;;;;;;4.68;2.97;;;;;;;;;;4997490;28;20643;-66
2022/09/14 10:46:46;;;;;;;4.55;2.90;;;;;;;;;;4994183;28;20034;-68
2022/09/14 10:49:36;;;;;;;4.15;3.20;;;;;;;;;;4996420;28;20049;-67
2022/09/14 10:52:09;;;;;;;3.80;3.00;;;;;;;;;;4997202;28;20745;-70
2022/09/14 10:54:58;;;;;;;4.95;3.50;;;;;;;;;;4996628;28;20081;-71
2022/09/14 10:57:46;;;;;;;3.92;3.00;;;;;;;;;;4996533;28;20034;-69
2022/09/14 11:00:17;;;;;;;4.90;3.40;;;;;;;;;;5003653;28;20033;-72
2022/09/14 11:02:58;;;;;;;5.20;3.53;;;;;;;;;;4996014;28;20033;-71
2022/09/14 11:05:35;;;;;;;4.45;3.50;;;;;;;;;;4997080;28;20654;-69
2022/09/14 11:08:06;;;;;;;6.80;3.92;;;;;;;;;;4997233;28;20829;-69
2022/09/14 11:11:09;;;;;;;5.03;3.13;;;;;;;;;;4997350;28;20069;-65
2022/09/14 11:13:46;;;;;;;4.57;3.40;;;;;;;;;;5001449;28;20046;-69
2022/09/14 11:16:52;;;;;;;5.65;3.17;;;;;;;;;;5003329;28;20038;-70
2022/09/14 11:19:31;;;;;;;3.65;3.22;;;;;;;;;;4991592;28;20037;-69
2022/09/14 11:22:39;;;;;;;5.82;3.00;;;;;;;;;;5003992;28;20124;-70
2022/09/14 11:25:13;;;;;;;6.20;3.20;;;;;;;;;;4980441;28;20512;-70
2022/09/14 11:27:51;;;;;;;5.22;2.97;;;;;;;;;;5001186;28;20049;-68
2022/09/14 11:30:20;;;;;;;4.25;3.53;;;;;;;;;;4998699;28;20081;-71
2022/09/14 11:32:54;;;;;;;6.78;4.38;;;;;;;;;;5001078;28;20027;-69
2022/09/14 11:35:29;;;;;;;4.75;3.65;;;;;;;;;;4998805;28;20037;-67
2022/09/14 11:38:01;;;;;;;5.32;4.30;;;;;;;;;;4998590;28;20528;-68
2022/09/14 11:40:36;;;;;;;7.32;4.40;;;;;;;;;;4996422;28;20092;-65
2022/09/14 11:43:09;;;;;;;5.78;3.78;;;;;;;;;;4996471;28;20522;-73
2022/09/14 11:45:41;;;;;;;4.85;3.75;;;;;;;;;;5001489;28;20465;-74
2022/09/14 11:48:33;;;;;;;6.07;3.80;;;;;;;;;;5002450;28;20498;-72
2022/09/14 11:51:10;;;;;;;5.07;4.07;;;;;;;;;;5000868;28;21455;-71
2022/09/14 11:53:36;;;;;;;5.43;4.00;;;;;;;;;;5007576;28;20148;-70
2022/09/14 11:56:02;;;;;;;5.95;4.32;;;;;;;;;;4994486;28;20093;-70
2022/09/14 11:58:31;;;;;;;8.75;4.35;;;;;;;;;;4998112;28;20054;-70
2022/09/14 12:01:30;;;;;;;7.25;4.45;;;;;;;;;;4995704;28;20040;-66
2022/09/14 12:03:58;;;;;;;5.38;4.38;;;;;;;;;;4996949;28;20041;-68
2022/09/14 12:06:29;;;;;;;5.70;4.18;;;;;;;;;;4995695;28;20038;-70
2022/09/14 12:09:16;;;;;;;5.53;4.45;;;;;;;;;;4998139;28;20275;-69
2022/09/14 12:11:43;;;;;;;5.20;3.95;;;;;;;;;;5005602;28;20675;-70
2022/09/14 12:14:25;;;;;;;5.55;4.25;;;;;;;;;;5001777;28;20557;-73
2022/09/14 12:17:02;;;;;;;;;;;;;;;;;;4997111;28;20494;-70
2022/09/14 12:19:29;;;;;;;8.68;6.22;;;;;;;;;;4997997;28;19920;-70
2022/09/14 12:21:54;;;;;;;7.68;5.50;;;;;;;;;;5002753;28;20038;-71
2022/09/14 12:24:21;;;;;;;7.78;5.60;;;;;;;;;;4999296;28;20034;-69
2022/09/14 12:26:47;;;;;;;7.97;6.13;;;;;;;;;;5000152;28;20037;-73
2022/09/14 12:29:30;;;;;;;8.68;5.93;;;;;;;;;;5001593;28;20030;-72
2022/09/14 12:31:55;;;;;;;8.20;5.70;;;;;;;;;;5006008;28;20030;-71
2022/09/14 12:34:23;;;;;;;7.38;5.45;;;;;;;;;;5004459;28;20038;-71
2022/09/14 12:36:48;;;;;;;7.18;5.13;;;;;;;;;;5007467;28;20117;-71
2022/09/14 12:39:25;;;;;;;5.55;4.93;;;;;;;;;;5008113;28;20573;-69
2022/09/14 12:41:51;;;;;;;7.68;5.05;;;;;;;;;;5007292;28;20586;-71
2022/09/14 12:44:38;;;;;;;7.55;5.00;;;;;;;;;;5006298;28;20042;-68
2022/09/14 12:47:28;;;;;;;7.80;5.05;;;;;;;;;;5008241;28;20120;-71
2022/09/14 12:49:56;;;;;;;7.50;5.32;;;;;;;;;;5007956;28;20557;-69
2022/09/14 12:52:52;;;;;;;13.82;6.70;;;;;;;;;;5007049;28;20132;-71
2022/09/14 12:55:42;;;;;;;13.20;6.78;;;;;;;;;;5005090;28;20038;-70
2022/09/14 12:58:20;;;;;;;10.82;5.70;;;;;;;;;;5007227;28;20038;-70
2022/09/14 13:01:13;;;;;;;9.35;5.75;;;;;;;;;;5007471;28;20034;-68
2022/09/14 13:03:49;;;;;;;10.07;5.78;;;;;;;;;;4968642;28;20092;-70
2022/09/14 13:06:16;;;;;;;14.73;6.63;;;;;;;;;;5006864;28;20783;-69
2022/09/14 13:08:52;;;;;;;8.02;6.00;;;;;;;;;;5007845;28;20025;-69
2022/09/14 13:11:37;;;;;;;10.25;6.38;;;;;;;;;;5006108;28;20120;-69
2022/09/14 13:14:03;;;;;;;9.20;6.50;;;;;;;;;;5004994;28;20455;-69
2022/09/14 13:16:43;;;;;;;16.90;6.60;;;;;;;;;;5008111;28;20081;-68
2022/09/14 13:19:19;;;;;;;11.35;6.28;;;;;;;;;;5007666;28;20117;-69
2022/09/14 13:21:48;;;;;;;11.20;6.82;;;;;;;;;;5009568;28;20030;-69
2022/09/14 13:24:35;;;;;;;11.60;6.93;;;;;;;;;;5010185;28;20038;-70
2022/09/14 13:27:01;;;;;;;14.27;6.82;;;;;;;;;;5008308;28;20516;-70
2022/09/14 13:29:27;;;;;;;9.95;6.80;;;;;;;;;;5007233;28;20382;-68
2022/09/14 13:31:55;;;;;;;11.68;7.65;;;;;;;;;;5001448;28;20045;-68
2022/09/14 13:34:25;;;;;;;13.90;7.28;;;;;;;;;;5000144;28;20030;-69
2022/09/14 13:36:51;;;;;;;12.95;7.50;;;;;;;;;;5003797;28;20034;-68
2022/09/14 13:39:29;;;;;;;10.45;7.32;;;;;;;;;;5009671;28;20034;-69
2022/09/14 13:41:55;;;;;;;12.77;7.60;;;;;;;;;;5004571;28;20029;-68
2022/09/14 13:44:44;;;;;;;10.63;7.18;;;;;;;;;;5008398;28;20120;-68
2022/09/14 13:47:18;;;;;;;11.68;7.80;;;;;;;;;;5004530;28;20443;-68
2022/09/14 13:49:45;;;;;;;11.68;7.25;;;;;;;;;;5006433;28;20434;-67
2022/09/14 13:52:18;;;;;;;10.93;7.65;;;;;;;;;;5003617;28;20482;-69
2022/09/14 13:54:44;;;;;;;10.32;7.45;;;;;;;;;;5019279;28;20101;-68
2022/09/14 13:57:15;;;;;;;13.65;7.85;;;;;;;;;;4996803;28;20033;-69
2022/09/14 14:00:08;;;;;;;11.98;7.55;;;;;;;;;;5001817;28;21642;-69
2022/09/14 14:02:35;;;;;;;14.57;8.18;;;;;;;;;;5004168;28;20621;-66
2022/09/14 14:05:02;;;;;;;11.65;8.10;;;;;;;;;;5002206;28;20089;-70
2022/09/14 14:07:32;;;;;;;13.68;8.55;;;;;;;;;;5004356;28;20084;-70
2022/09/14 14:09:58;;;;;;;16.30;9.20;;;;;;;;;;5002774;28;20569;-70
2022/09/14 14:12:38;;;;;;;16.60;9.88;;;;;;;;;;5003626;28;20034;-69
2022/09/14 14:15:10;;;;;;;14.05;9.32;;;;;;;;;;5006936;28;20458;-70
2022/09/14 14:17:40;;;;;;;15.60;10.40;;;;;;;;;;4998127;28;20031;-71
2022/09/14 14:20:28;;;;;;;15.13;9.55;;;;;;;;;;5001237;28;20157;-66
2022/09/14 14:23:04;;;;;;;17.98;9.75;;;;;;;;;;5000364;28;20371;-71
2022/09/14 14:25:37;;;;;;;23.15;9.75;;;;;;;;;;4987665;28;20057;-65
2022/09/14 14:28:06;;;;;;;15.98;9.20;;;;;;;;;;4979355;28;20060;-64
2022/09/14 14:30:39;;;;;;;11.40;7.70;;;;;;;;;;4979380;28;20038;-69
2022/09/14 14:33:05;;;;;;;9.35;5.55;;;;;;;;;;4979278;28;20080;-71
2022/09/14 14:35:31;;;;;;;11.45;7.15;;;;;;;;;;4981568;28;20018;-69
2022/09/14 14:37:57;;;;;;;9.35;5.90;;;;;;;;;;4984656;28;20182;-71
2022/09/14 14:40:26;;;;;;;11.18;5.60;;;;;;;;;;5003113;28;20061;-71
2022/09/14 14:42:53;;;;;;;10.07;5.38;;;;;;;;;;5004457;28;20456;-68
2022/09/14 14:45:25;;;;;;;6.50;5.10;;;;;;;;;;5003599;28;20390;-71
2022/09/14 14:47:51;;;;;;;10.25;5.00;;;;;;;;;;4999082;28;20609;-71
2022/09/14 14:50:26;;;;;;;6.90;4.95;;;;;;;;;;5005438;28;20037;-71
2022/09/14 14:52:52;;;;;;;8.63;5.50;;;;;;;;;;5007861;28;20033;-67
2022/09/14 14:55:19;;;;;;;7.68;5.57;;;;;;;;;;5002345;28;20124;-68
2022/09/14 14:57:49;;;;;;;7.80;5.07;;;;;;;;;;5005807;28;20042;-71
2022/09/14 15:00:17;;;;;;;9.85;4.85;;;;;;;;;;5008952;28;20061;-71
2022/09/14 15:02:43;;;;;;;8.45;4.90;;;;;;;;;;5007637;28;20496;-70
2022/09/14 15:05:09;;;;;;;10.63;5.55;;;;;;;;;;5001168;28;20030;-70
2022/09/14 15:07:35;;;;;;;8.98;4.93;;;;;;;;;;5000151;28;20121;-69